Time;durP1;ratioP1;P1;durP2;ratioP2;P2;SDS_P1;SDS_P2;PMS_P1;PMS_P2;Temp;Humidity;BMP_temperature;BMP_pressure;BME280_temperature;BME280_humidity;BME280_pressure;Samples;Min_cycle;Max_cycle;Signal;HPM_P1;HPM_P2
2023/05/03 00:00:06;;;;;;;2.88;1.60;;;;;;;14.21;41.44;95339.03;5030455;28;20293;-66
2023/05/03 00:02:38;;;;;;;1.90;1.80;;;;;;;14.07;41.53;95343.94;5031695;28;20195;-66
2023/05/03 00:05:08;;;;;;;5.00;1.95;;;;;;;13.96;41.59;95343.53;5032371;28;20211;-67
2023/05/03 00:07:35;;;;;;;2.95;2.10;;;;;;;13.79;42.15;95340.88;5032717;28;20277;-66
2023/05/03 00:10:02;;;;;;;1.58;1.27;;;;;;;13.70;42.31;95356.56;5031702;28;20207;-65
2023/05/03 00:12:28;;;;;;;1.45;1.30;;;;;;;13.61;42.74;95352.66;5032600;28;20228;-66
2023/05/03 00:14:55;;;;;;;1.70;1.05;;;;;;;13.63;42.61;95341.47;5031272;28;20242;-64
2023/05/03 00:17:22;;;;;;;2.97;1.92;;;;;;;13.57;42.60;95357.06;5031876;28;20234;-66
2023/05/03 00:19:50;;;;;;;2.60;2.17;;;;;;;13.60;43.09;95341.63;5031730;28;20307;-66
2023/05/03 00:22:16;;;;;;;4.80;2.00;;;;;;;13.51;43.13;95347.09;5032080;28;20216;-67
2023/05/03 00:24:43;;;;;;;4.78;1.67;;;;;;;13.44;43.68;95350.78;5031393;28;20610;-66
2023/05/03 00:27:10;;;;;;;3.00;1.60;;;;;;;13.52;44.31;95347.94;5031772;28;20278;-68
2023/05/03 00:29:36;;;;;;;2.08;1.75;;;;;;;13.46;44.29;95354.09;5031539;28;20235;-67
2023/05/03 00:32:03;;;;;;;1.48;1.38;;;;;;;13.54;44.66;95346.16;5031844;28;20231;-65
2023/05/03 00:34:30;;;;;;;3.00;1.58;;;;;;;13.53;44.75;95347.88;5030941;28;20203;-67
2023/05/03 00:36:58;;;;;;;2.53;1.65;;;;;;;13.45;44.55;95370.31;5030599;28;20200;-67
2023/05/03 00:39:24;;;;;;;7.18;2.03;;;;;;;13.43;44.83;95367.00;5031374;28;20754;-67
2023/05/03 00:41:56;;;;;;;2.58;2.38;;;;;;;13.39;45.40;95359.50;5031773;28;20277;-67
2023/05/03 00:44:23;;;;;;;2.03;1.80;;;;;;;13.39;45.01;95362.91;5023435;28;20619;-68
2023/05/03 00:46:51;;;;;;;3.95;2.10;;;;;;;13.41;45.05;95368.78;5030372;28;20715;-64
2023/05/03 00:49:18;;;;;;;3.05;1.80;;;;;;;13.30;45.25;95372.66;5032008;28;20580;-66
2023/05/03 00:51:44;;;;;;;2.00;1.88;;;;;;;13.19;45.61;95396.03;5030636;28;20278;-64
2023/05/03 00:54:12;;;;;;;1.63;1.52;;;;;;;13.10;45.88;95369.13;5031522;28;20242;-64
2023/05/03 00:56:40;;;;;;;2.95;1.73;;;;;;;13.13;45.48;95365.59;5031117;28;20207;-66
2023/05/03 00:59:06;;;;;;;4.43;1.67;;;;;;;13.01;45.76;95387.31;5031281;28;20206;-67
2023/05/03 01:01:33;;;;;;;2.15;1.73;;;;;;;13.04;46.17;95358.31;5031135;28;20204;-65
2023/05/03 01:04:01;;;;;;;2.15;1.60;;;;;;;13.03;45.82;95354.09;5031467;28;20300;-66
2023/05/03 01:06:37;;;;;;;3.90;1.73;;;;;;;13.09;45.73;95369.19;5031076;28;20203;-66
2023/05/03 01:09:12;;;;;;;2.42;1.45;;;;;;;13.03;45.54;95349.00;5031087;28;20251;-66
2023/05/03 01:11:48;;;;;;;1.55;1.45;;;;;;;13.13;45.01;95346.03;5030759;28;20696;-65
2023/05/03 01:14:26;;;;;;;11.95;1.88;;;;;;;13.22;45.45;95339.78;5029857;28;20199;-67
2023/05/03 01:16:58;;;;;;;1.65;1.55;;;;;;;13.21;45.18;95341.50;5024585;28;20231;-67
2023/05/03 01:19:30;;;;;;;1.63;1.42;;;;;;;13.06;45.29;95361.66;5030267;28;20232;-67
2023/05/03 01:22:16;;;;;;;2.75;1.80;;;;;;;12.86;45.87;95353.03;5030095;28;20250;-67
2023/05/03 01:24:47;;;;;;;2.35;1.48;;;;;;;12.90;45.83;95349.47;5029126;28;20709;-67
2023/05/03 01:27:15;;;;;;;4.32;1.60;;;;;;;12.79;46.12;95336.28;5027664;28;20704;-66
2023/05/03 01:29:42;;;;;;;3.72;1.92;;;;;;;12.67;46.37;95334.19;5030576;28;20635;-69
2023/05/03 01:32:15;;;;;;;1.77;1.67;;;;;;;12.75;46.38;95332.19;5029926;28;20207;-68
2023/05/03 01:34:50;;;;;;;2.10;2.00;;;;;;;12.74;46.40;95332.25;5030193;28;20569;-65
2023/05/03 01:37:18;;;;;;;1.98;1.80;;;;;;;12.86;46.06;95322.44;5030534;28;20202;-68
2023/05/03 01:39:50;;;;;;;2.20;1.85;;;;;;;12.78;46.34;95329.53;5030037;28;20250;-67
2023/05/03 01:42:20;;;;;;;1.65;1.50;;;;;;;12.72;45.69;95334.84;5030405;28;20239;-65
2023/05/03 01:44:48;;;;;;;3.28;1.85;;;;;;;12.63;46.22;95334.34;5029910;28;20239;-65
2023/05/03 01:47:15;;;;;;;2.05;1.50;;;;;;;12.63;46.33;95314.78;5029849;28;20577;-68
2023/05/03 01:49:41;;;;;;;3.72;2.08;;;;;;;12.65;45.81;95325.75;5029882;28;20689;-67
2023/05/03 01:52:09;;;;;;;2.33;1.83;;;;;;;12.52;46.44;95316.94;5030598;28;20235;-67
2023/05/03 01:54:35;;;;;;;3.00;2.15;;;;;;;12.57;46.11;95304.84;5029920;28;20262;-68
2023/05/03 01:57:02;;;;;;;2.95;1.98;;;;;;;12.61;46.10;95314.06;5030129;28;20276;-67
2023/05/03 01:59:30;;;;;;;1.92;1.75;;;;;;;12.62;46.38;95309.78;5030358;28;20208;-68
2023/05/03 02:01:57;;;;;;;3.60;1.90;;;;;;;12.46;46.62;95301.84;5029728;28;20204;-64
2023/05/03 02:04:23;;;;;;;3.38;1.83;;;;;;;12.47;46.92;95308.63;5029972;28;20239;-67
2023/05/03 02:06:50;;;;;;;3.85;2.03;;;;;;;12.56;46.47;95303.19;5029957;28;20246;-67
2023/05/03 02:09:17;;;;;;;2.60;1.92;;;;;;;12.47;46.58;95308.63;5030217;28;20314;-67
2023/05/03 02:11:43;;;;;;;2.72;1.80;;;;;;;12.49;46.87;95305.13;5029590;28;22206;-66
2023/05/03 02:14:10;;;;;;;1.85;1.67;;;;;;;12.43;46.60;95309.59;5030405;28;20208;-65
2023/05/03 02:16:38;;;;;;;2.47;1.80;;;;;;;12.41;46.77;95293.53;5029953;28;20207;-66
2023/05/03 02:19:06;;;;;;;4.30;2.15;;;;;;;12.34;47.50;95292.13;5030223;28;20270;-67
2023/05/03 02:21:33;;;;;;;2.47;1.58;;;;;;;12.38;47.76;95289.38;5028715;28;20263;-67
2023/05/03 02:24:00;;;;;;;3.90;1.85;;;;;;;12.41;47.44;95296.09;5029958;28;20239;-67
2023/05/03 02:26:27;;;;;;;1.98;1.83;;;;;;;12.40;47.42;95299.53;5022366;28;20200;-67
2023/05/03 02:28:55;;;;;;;8.85;2.00;;;;;;;12.40;47.81;95297.81;5029595;28;20713;-67
2023/05/03 02:31:22;;;;;;;7.78;1.83;;;;;;;12.41;47.95;95298.63;5030105;28;20290;-66
2023/05/03 02:33:50;;;;;;;3.42;1.70;;;;;;;12.43;47.81;95299.41;5026753;28;20253;-67
2023/05/03 02:36:16;;;;;;;1.60;1.50;;;;;;;12.42;47.72;95305.41;5029774;28;20253;-67
2023/05/03 02:38:43;;;;;;;1.92;1.83;;;;;;;12.34;48.09;95292.13;5028969;28;20630;-67
2023/05/03 02:41:10;;;;;;;1.80;1.70;;;;;;;12.23;48.33;95312.88;5029793;28;20238;-68
2023/05/03 02:43:36;;;;;;;5.53;1.90;;;;;;;12.30;48.26;95313.50;5029827;28;20210;-67
2023/05/03 02:46:03;;;;;;;2.78;2.58;;;;;;;12.29;48.29;95319.50;5029809;28;20235;-67
2023/05/03 02:48:30;;;;;;;2.78;2.13;;;;;;;12.29;48.14;95316.94;5029311;28;20259;-66
2023/05/03 02:50:58;;;;;;;2.40;2.25;;;;;;;12.25;48.30;95324.69;5029192;28;20250;-67
2023/05/03 02:53:25;;;;;;;3.13;1.90;;;;;;;12.26;48.21;95320.44;5029601;28;20677;-67
2023/05/03 02:55:51;;;;;;;1.67;1.58;;;;;;;12.34;47.94;95312.50;5029307;28;20225;-68
2023/05/03 02:58:18;;;;;;;3.25;2.03;;;;;;;12.33;48.17;95310.84;5029209;28;20227;-67
2023/05/03 03:00:45;;;;;;;2.88;1.90;;;;;;;12.29;48.16;95304.19;5029296;28;20247;-66
2023/05/03 03:03:11;;;;;;;2.88;2.25;;;;;;;12.44;47.79;95314.66;5030413;28;20231;-68
2023/05/03 03:05:38;;;;;;;1.75;1.65;;;;;;;12.43;47.94;95309.59;5030313;28;20223;-68
2023/05/03 03:08:06;;;;;;;2.15;2.00;;;;;;;12.42;47.78;95321.53;5029755;28;20231;-67
2023/05/03 03:10:33;;;;;;;2.28;1.70;;;;;;;12.34;47.98;95322.72;5029442;28;20231;-66
2023/05/03 03:13:00;;;;;;;2.30;2.10;;;;;;;12.31;48.28;95325.38;5029873;28;20262;-66
2023/05/03 03:15:26;;;;;;;2.38;2.10;;;;;;;12.29;48.34;95319.50;5030653;28;20203;-67
2023/05/03 03:17:56;;;;;;;5.75;2.28;;;;;;;12.28;48.38;95323.75;5033779;28;20230;-68
2023/05/03 03:20:23;;;;;;;6.10;2.35;;;;;;;12.39;48.21;95316.53;5032324;28;20238;-67
2023/05/03 03:22:50;;;;;;;2.13;2.00;;;;;;;12.34;48.17;95320.16;5033266;28;20235;-68
2023/05/03 03:25:18;;;;;;;3.30;2.00;;;;;;;12.40;48.70;95314.81;5033396;28;20208;-66
2023/05/03 03:27:45;;;;;;;2.38;1.92;;;;;;;12.35;48.77;95334.56;5028610;28;20751;-66
2023/05/03 03:30:12;;;;;;;2.05;1.92;;;;;;;12.24;48.85;95335.78;5033060;28;20677;-67
2023/05/03 03:32:38;;;;;;;3.55;2.22;;;;;;;12.23;48.92;95323.91;5032617;28;20204;-66
2023/05/03 03:35:07;;;;;;;3.60;2.20;;;;;;;12.35;49.02;95325.19;5033431;28;20235;-67
2023/05/03 03:37:33;;;;;;;2.72;2.28;;;;;;;12.43;49.13;95337.66;5032928;28;20210;-67
2023/05/03 03:40:00;;;;;;;2.15;2.00;;;;;;;12.10;49.54;95343.06;5033271;28;20269;-66
2023/05/03 03:42:28;;;;;;;4.25;2.17;;;;;;;12.13;49.76;95342.94;5032935;28;20296;-67
2023/05/03 03:44:55;;;;;;;1.85;1.75;;;;;;;12.05;49.82;95352.59;5033166;28;20208;-66
2023/05/03 03:47:22;;;;;;;3.78;2.00;;;;;;;12.16;49.41;95350.47;5032184;28;20235;-66
2023/05/03 03:49:48;;;;;;;2.17;2.08;;;;;;;12.13;49.58;95350.59;5026449;28;20224;-66
2023/05/03 03:52:15;;;;;;;3.83;2.22;;;;;;;12.15;49.67;95348.81;5030824;28;20627;-66
2023/05/03 03:54:41;;;;;;;4.07;1.88;;;;;;;12.12;49.43;95354.06;5032945;28;20238;-66
2023/05/03 03:57:09;;;;;;;2.85;1.85;;;;;;;12.06;50.07;95368.72;5031964;28;20203;-67
2023/05/03 03:59:36;;;;;;;5.90;2.63;;;;;;;12.13;49.93;95362.50;5033029;28;20200;-66
2023/05/03 04:02:03;;;;;;;3.78;2.00;;;;;;;12.23;49.76;95374.03;5031945;28;20239;-66
2023/05/03 04:04:30;;;;;;;2.60;1.85;;;;;;;12.16;49.54;95365.78;5032498;28;20204;-66
2023/05/03 04:06:57;;;;;;;2.28;2.08;;;;;;;12.18;49.38;95361.44;5032559;28;20206;-67
2023/05/03 04:09:23;;;;;;;2.30;2.20;;;;;;;12.20;49.34;95369.88;5032362;28;20224;-67
2023/05/03 04:11:50;;;;;;;2.03;1.85;;;;;;;12.13;49.40;95368.41;5032696;28;20262;-67
2023/05/03 04:14:16;;;;;;;3.03;2.03;;;;;;;12.15;49.49;95369.19;5032482;28;20718;-66
2023/05/03 04:16:44;;;;;;;1.75;1.65;;;;;;;12.12;49.09;95371.88;5029499;28;20231;-67
2023/05/03 04:19:11;;;;;;;7.93;2.22;;;;;;;12.09;49.45;95384.72;5031791;28;20204;-67
2023/05/03 04:21:38;;;;;;;3.72;2.05;;;;;;;12.09;49.48;95379.63;5031611;28;20332;-67
2023/05/03 04:24:08;;;;;;;4.50;2.60;;;;;;;12.02;49.77;95383.25;5032488;28;20208;-65
2023/05/03 04:26:35;;;;;;;3.10;2.10;;;;;;;12.14;49.47;95387.91;5031244;28;20286;-67
2023/05/03 04:29:02;;;;;;;5.00;2.72;;;;;;;12.16;49.46;95400.59;5031670;28;20737;-65
2023/05/03 04:31:29;;;;;;;2.53;2.25;;;;;;;12.08;49.67;95422.97;5032117;28;20196;-67
2023/05/03 04:33:57;;;;;;;2.58;2.28;;;;;;;11.98;49.96;95409.72;5031985;28;20231;-67
2023/05/03 04:36:25;;;;;;;2.13;2.03;;;;;;;12.07;49.89;95414.50;5031756;28;20206;-67
2023/05/03 04:38:52;;;;;;;2.90;2.42;;;;;;;12.05;50.03;95421.38;5032276;28;20210;-68
2023/05/03 04:41:19;;;;;;;6.22;2.67;;;;;;;12.12;50.46;95417.75;5031595;28;20604;-67
2023/05/03 04:43:46;;;;;;;2.50;2.30;;;;;;;12.15;50.74;95426.97;5030634;28;20227;-66
2023/05/03 04:46:12;;;;;;;4.30;2.80;;;;;;;12.08;50.73;95423.81;5028911;28;20236;-67
2023/05/03 04:48:39;;;;;;;5.35;2.53;;;;;;;12.27;50.38;95429.13;5030338;28;20255;-67
2023/05/03 04:51:07;;;;;;;6.25;2.50;;;;;;;12.20;50.35;95433.59;5028919;28;20278;-68
2023/05/03 04:53:34;;;;;;;4.38;2.53;;;;;;;12.19;50.35;95437.00;5030677;28;20204;-67
2023/05/03 04:56:00;;;;;;;2.40;2.30;;;;;;;12.05;51.04;95443.47;5031691;28;20242;-67
2023/05/03 04:58:27;;;;;;;11.57;2.58;;;;;;;12.04;51.29;95440.09;5024632;28;20234;-67
2023/05/03 05:00:54;;;;;;;3.35;2.53;;;;;;;11.86;51.29;95469.53;5031452;28;20257;-67
2023/05/03 05:03:21;;;;;;;4.18;2.20;;;;;;;11.81;51.83;95442.56;5025151;28;20693;-66
2023/05/03 05:05:47;;;;;;;3.05;2.08;;;;;;;11.93;51.44;95444.69;5030300;28;20651;-67
2023/05/03 05:08:15;;;;;;;3.20;2.08;;;;;;;11.91;51.50;95466.81;5029887;28;20692;-67
2023/05/03 05:10:42;;;;;;;4.63;2.67;;;;;;;12.01;51.58;95452.91;5031039;28;20231;-66
2023/05/03 05:13:09;;;;;;;4.07;2.25;;;;;;;11.97;51.53;95461.53;5030860;28;20701;-65
2023/05/03 05:15:36;;;;;;;3.97;2.58;;;;;;;11.79;52.97;95472.31;5031227;28;20239;-67
2023/05/03 05:18:02;;;;;;;10.63;2.80;;;;;;;11.66;54.24;95464.19;5031240;28;20231;-66
2023/05/03 05:20:29;;;;;;;2.60;2.40;;;;;;;11.71;55.34;95461.50;5024706;28;20258;-68
2023/05/03 05:22:56;;;;;;;5.07;2.75;;;;;;;11.70;55.60;95462.38;5011691;28;20783;-68
2023/05/03 05:25:24;;;;;;;3.05;2.50;;;;;;;11.50;56.53;95460.47;5014663;28;20239;-66
2023/05/03 05:27:50;;;;;;;2.95;2.75;;;;;;;11.47;56.98;95469.03;5025480;28;20240;-67
2023/05/03 05:30:18;;;;;;;2.75;2.55;;;;;;;11.46;57.85;95459.72;5022880;28;20288;-68
2023/05/03 05:32:45;;;;;;;3.00;2.50;;;;;;;11.46;57.40;95469.06;5017476;28;20290;-68
2023/05/03 05:35:11;;;;;;;2.72;2.53;;;;;;;11.71;57.17;95454.69;5011258;28;20208;-66
2023/05/03 05:37:38;;;;;;;4.55;2.67;;;;;;;12.02;55.45;95466.50;5011028;28;20292;-66
2023/05/03 05:40:06;;;;;;;4.25;3.17;;;;;;;11.85;55.61;95464.50;5010381;28;20259;-68
2023/05/03 05:42:34;;;;;;;4.78;3.20;;;;;;;11.91;55.84;95466.81;5011037;28;20211;-68
2023/05/03 05:45:01;;;;;;;2.67;2.47;;;;;;;12.12;55.04;95468.69;5011025;28;20200;-67
2023/05/03 05:47:28;;;;;;;6.13;2.45;;;;;;;12.32;54.06;95457.00;5011576;28;20244;-67
2023/05/03 05:49:54;;;;;;;3.15;2.60;;;;;;;12.31;53.84;95470.63;5010305;28;20552;-67
2023/05/03 05:52:21;;;;;;;2.80;2.53;;;;;;;12.49;52.99;95469.97;5012191;28;20227;-67
2023/05/03 05:54:48;;;;;;;2.95;2.65;;;;;;;12.47;52.85;95469.19;5011583;28;20565;-67
2023/05/03 05:57:15;;;;;;;4.00;2.72;;;;;;;12.46;52.81;95465.00;5012797;28;20235;-67
2023/05/03 05:59:43;;;;;;;3.80;2.53;;;;;;;12.47;53.32;95470.03;5010778;28;20232;-67
2023/05/03 06:02:15;;;;;;;4.95;2.60;;;;;;;12.48;53.04;95468.31;5010915;28;20235;-66
2023/05/03 06:04:42;;;;;;;3.75;2.83;;;;;;;12.22;53.88;95472.59;5009865;28;20295;-66
2023/05/03 06:07:08;;;;;;;4.38;3.08;;;;;;;12.28;54.00;95471.56;5013738;28;20644;-65
2023/05/03 06:09:35;;;;;;;5.30;2.90;;;;;;;12.29;54.32;95467.28;5007011;28;20682;-67
2023/05/03 06:12:01;;;;;;;2.58;2.38;;;;;;;12.27;54.14;95483.47;5008469;28;20595;-67
2023/05/03 06:14:28;;;;;;;6.88;2.60;;;;;;;12.08;54.85;95474.78;5013898;28;20673;-66
2023/05/03 06:16:57;;;;;;;3.53;2.25;;;;;;;12.05;55.15;95479.97;5010574;28;20240;-67
2023/05/03 06:19:24;;;;;;;2.80;2.30;;;;;;;12.05;55.37;95463.84;5010395;28;20342;-68
2023/05/03 06:21:51;;;;;;;2.88;2.60;;;;;;;11.92;56.19;95458.31;5027593;28;20238;-67
2023/05/03 06:24:19;;;;;;;3.33;2.47;;;;;;;12.19;55.63;95462.50;5030569;28;20289;-69
2023/05/03 06:26:46;;;;;;;3.10;2.80;;;;;;;12.11;55.47;95477.22;5029700;28;20661;-67
2023/05/03 06:29:13;;;;;;;2.78;2.58;;;;;;;12.06;56.18;95468.88;5030108;28;20198;-66
2023/05/03 06:31:40;;;;;;;3.47;3.17;;;;;;;12.07;56.42;95470.56;5025766;28;20203;-67
2023/05/03 06:34:08;;;;;;;3.63;3.40;;;;;;;12.15;57.41;95457.53;5029779;28;20713;-68
2023/05/03 06:36:36;;;;;;;3.40;3.10;;;;;;;12.16;56.17;95454.13;5000279;28;20266;-67
2023/05/03 06:39:03;;;;;;;3.92;2.88;;;;;;;12.28;56.09;95443.53;4974405;28;20237;-66
2023/05/03 06:41:31;;;;;;;3.20;3.00;;;;;;;12.64;55.22;95438.00;4983105;28;20196;-68
2023/05/03 06:43:58;;;;;;;2.75;2.55;;;;;;;12.90;54.27;95443.00;4979426;28;20663;-68
2023/05/03 06:46:26;;;;;;;4.15;2.65;;;;;;;12.99;53.90;95444.41;4980440;28;20234;-67
2023/05/03 06:48:55;;;;;;;7.57;4.32;;;;;;;12.99;53.27;95441.84;4982095;28;20227;-66
2023/05/03 06:51:26;;;;;;;3.25;2.95;;;;;;;13.07;53.21;95439.84;4984878;28;20259;-68
2023/05/03 06:53:53;;;;;;;4.13;3.10;;;;;;;12.87;53.91;95438.00;4986191;28;20255;-65
2023/05/03 06:56:20;;;;;;;4.60;3.20;;;;;;;12.78;54.06;95425.63;4987207;28;22581;-66
2023/05/03 06:58:47;;;;;;;3.38;2.63;;;;;;;12.76;53.94;95423.13;4984730;28;20298;-68
2023/05/03 07:01:13;;;;;;;3.30;2.58;;;;;;;12.70;54.17;95428.44;4985485;28;20768;-65
2023/05/03 07:03:40;;;;;;;6.25;2.88;;;;;;;12.68;54.41;95420.00;4983664;28;20215;-68
2023/05/03 07:06:07;;;;;;;2.85;2.65;;;;;;;12.58;54.31;95428.88;4984123;28;20754;-66
2023/05/03 07:08:35;;;;;;;6.15;3.53;;;;;;;12.39;54.14;95417.66;4983025;28;20760;-63
2023/05/03 07:11:03;;;;;;;2.63;2.42;;;;;;;12.53;54.74;95410.38;4983902;28;20285;-63
2023/05/03 07:13:30;;;;;;;3.50;3.20;;;;;;;12.40;54.61;95409.94;4983116;28;20207;-66
2023/05/03 07:15:56;;;;;;;2.92;2.60;;;;;;;12.22;55.11;95430.97;4979611;28;20254;-65
2023/05/03 07:18:23;;;;;;;3.05;2.85;;;;;;;12.31;55.36;95423.03;4984498;28;20808;-66
2023/05/03 07:20:50;;;;;;;4.50;3.00;;;;;;;12.31;55.21;95419.66;4985279;28;20255;-64
2023/05/03 07:23:17;;;;;;;3.83;3.28;;;;;;;12.56;55.26;95400.91;4985282;28;20318;-64
2023/05/03 07:25:46;;;;;;;3.30;2.95;;;;;;;12.98;53.53;95412.94;4984373;28;20294;-63
2023/05/03 07:28:12;;;;;;;3.60;3.10;;;;;;;13.06;53.38;95405.84;4985578;28;20207;-65
2023/05/03 07:30:39;;;;;;;4.07;3.17;;;;;;;13.23;53.81;95402.69;4984488;28;21525;-64
2023/05/03 07:33:06;;;;;;;5.68;3.05;;;;;;;13.09;54.10;95415.94;4984833;28;20698;-65
2023/05/03 07:35:33;;;;;;;4.13;2.97;;;;;;;13.19;54.76;95424.09;4984522;28;20787;-65
2023/05/03 07:38:00;;;;;;;3.35;2.70;;;;;;;13.36;53.89;95434.53;4981305;28;20250;-65
2023/05/03 07:40:27;;;;;;;7.00;3.05;;;;;;;13.39;54.73;95418.22;4978599;28;20265;-64
2023/05/03 07:42:56;;;;;;;4.82;2.80;;;;;;;13.43;54.56;95420.59;4981918;28;20295;-65
2023/05/03 07:45:22;;;;;;;2.85;2.50;;;;;;;13.17;54.87;95419.06;4977158;28;20298;-64
2023/05/03 07:47:49;;;;;;;3.40;3.00;;;;;;;13.21;55.58;95417.22;4986260;28;20330;-64
2023/05/03 07:50:16;;;;;;;3.70;3.40;;;;;;;13.25;55.82;95416.22;4986634;28;20220;-66
2023/05/03 07:52:42;;;;;;;4.53;2.90;;;;;;;13.32;55.25;95427.03;4988306;28;20337;-65
2023/05/03 07:55:10;;;;;;;3.40;3.10;;;;;;;13.37;55.60;95430.22;4981576;28;20274;-65
2023/05/03 07:57:36;;;;;;;4.07;3.00;;;;;;;13.41;55.29;95426.66;4984262;28;20299;-62
2023/05/03 08:00:07;;;;;;;6.80;3.33;;;;;;;13.45;55.55;95434.16;4978254;28;20233;-67
2023/05/03 08:02:33;;;;;;;5.60;2.90;;;;;;;13.55;55.64;95422.69;4984225;28;20204;-64
2023/05/03 08:05:00;;;;;;;4.65;3.15;;;;;;;13.71;55.59;95424.63;4987776;28;20355;-63
2023/05/03 08:07:27;;;;;;;3.58;3.17;;;;;;;13.73;54.47;95433.06;4978695;28;20290;-64
2023/05/03 08:09:55;;;;;;;5.53;3.47;;;;;;;14.06;53.77;95436.81;4985595;28;20291;-63
2023/05/03 08:12:22;;;;;;;4.47;3.28;;;;;;;14.16;53.48;95437.25;4985158;28;20209;-64
2023/05/03 08:14:48;;;;;;;4.18;3.15;;;;;;;14.07;54.33;95435.94;4985152;28;20212;-65
2023/05/03 08:17:16;;;;;;;3.70;3.20;;;;;;;13.90;54.50;95435.75;4983753;28;20338;-65
2023/05/03 08:19:44;;;;;;;3.80;3.30;;;;;;;13.84;54.95;95430.91;4984401;28;20317;-65
2023/05/03 08:22:11;;;;;;;5.38;2.90;;;;;;;14.10;54.48;95428.13;4985723;28;20242;-65
2023/05/03 08:24:38;;;;;;;6.90;2.97;;;;;;;14.88;52.59;95430.72;4972529;28;20223;-64
2023/05/03 08:27:06;;;;;;;3.08;2.83;;;;;;;15.24;51.27;95433.38;4983879;28;20307;-64
2023/05/03 08:29:36;;;;;;;3.58;3.28;;;;;;;15.10;51.53;95432.31;4984753;28;20207;-65
2023/05/03 08:32:03;;;;;;;3.22;2.97;;;;;;;15.59;50.70;95436.88;4984558;28;20235;-66
2023/05/03 08:34:32;;;;;;;3.15;2.95;;;;;;;16.80;48.08;95429.19;4984015;28;20768;-65
2023/05/03 08:36:58;;;;;;;7.38;3.47;;;;;;;18.73;43.85;95424.44;4983291;28;20989;-63
2023/05/03 08:39:26;;;;;;;3.35;2.75;;;;;;;19.70;40.59;95403.75;4984986;28;20313;-64
2023/05/03 08:41:54;;;;;;;3.65;3.35;;;;;;;20.52;39.27;95407.03;4984781;28;20218;-64
2023/05/03 08:44:22;;;;;;;4.70;3.17;;;;;;;23.10;34.24;95413.34;4983869;28;20207;-62
2023/05/03 08:46:49;;;;;;;2.83;2.63;;;;;;;25.81;30.28;95396.00;4983004;28;20211;-64
2023/05/03 08:49:17;;;;;;;3.63;3.33;;;;;;;28.27;26.07;95392.94;4982151;28;20330;-65
2023/05/03 08:51:46;;;;;;;6.05;3.47;;;;;;;29.48;24.69;95392.00;4980355;28;20354;-65
2023/05/03 08:54:13;;;;;;;4.25;2.60;;;;;;;29.11;24.67;95401.00;4983330;28;20831;-66
2023/05/03 08:56:42;;;;;;;5.80;3.45;;;;;;;28.76;25.61;95399.31;4986005;28;20210;-65
2023/05/03 08:59:09;;;;;;;3.35;3.05;;;;;;;29.66;24.18;95402.41;4986872;28;20393;-64
2023/05/03 09:01:36;;;;;;;3.00;2.80;;;;;;;27.08;27.06;95399.16;4985579;28;20269;-64
2023/05/03 09:04:03;;;;;;;5.30;3.05;;;;;;;25.34;29.62;95413.16;4985068;28;20219;-64
2023/05/03 09:06:31;;;;;;;4.35;3.63;;;;;;;21.87;35.10;95427.75;4986702;28;20199;-63
2023/05/03 09:09:00;;;;;;;3.65;3.35;;;;;;;19.47;40.18;95427.56;4986073;28;20218;-64
2023/05/03 09:11:29;;;;;;;2.95;2.75;;;;;;;18.30;42.98;95434.66;4986199;28;20223;-63
2023/05/03 09:14:08;;;;;;;3.28;2.97;;;;;;;17.98;44.82;95408.19;4980198;28;20287;-63
2023/05/03 09:16:35;;;;;;;3.45;2.83;;;;;;;18.43;44.02;95411.59;4984064;28;20273;-64
2023/05/03 09:19:03;;;;;;;3.20;3.00;;;;;;;17.81;44.50;95413.47;4986181;28;20640;-64
2023/05/03 09:21:31;;;;;;;3.42;3.20;;;;;;;17.85;44.90;95405.47;4986437;28;20235;-64
2023/05/03 09:23:58;;;;;;;4.22;3.72;;;;;;;18.15;44.76;95402.06;4985938;28;20216;-63
2023/05/03 09:26:31;;;;;;;5.65;3.05;;;;;;;19.15;42.41;95395.22;4985333;28;20254;-64
2023/05/03 09:28:58;;;;;;;4.30;3.53;;;;;;;19.68;41.73;95392.72;4985829;28;20295;-64
2023/05/03 09:31:26;;;;;;;3.58;3.28;;;;;;;19.31;41.36;95394.16;4985601;28;20366;-63
2023/05/03 09:33:53;;;;;;;4.72;3.58;;;;;;;18.56;43.21;95387.59;4985654;28;21502;-65
2023/05/03 09:36:20;;;;;;;3.88;2.67;;;;;;;18.29;44.85;95384.94;4985110;28;20203;-64
2023/05/03 09:38:47;;;;;;;3.72;3.50;;;;;;;18.21;44.86;95376.84;4985091;28;20203;-64
2023/05/03 09:41:14;;;;;;;4.20;3.90;;;;;;;18.41;44.58;95367.09;4986038;28;20321;-65
2023/05/03 09:43:51;;;;;;;4.35;4.00;;;;;;;18.21;45.68;95363.13;4984914;28;20816;-64
2023/05/03 09:46:18;;;;;;;4.05;3.30;;;;;;;18.64;44.84;95366.59;4984465;28;20724;-63
2023/05/03 09:48:45;;;;;;;3.53;3.33;;;;;;;18.86;44.65;95359.22;4984613;28;20690;-64
2023/05/03 09:51:12;;;;;;;5.15;3.58;;;;;;;18.95;44.34;95352.69;4986781;28;20227;-64
2023/05/03 09:53:40;;;;;;;4.32;3.78;;;;;;;18.80;44.41;95358.78;4984639;28;20223;-64
2023/05/03 09:56:08;;;;;;;3.97;3.65;;;;;;;18.93;44.28;95365.66;4984409;28;21087;-66
2023/05/03 09:58:36;;;;;;;4.07;3.30;;;;;;;18.89;44.24;95353.88;4985638;28;20200;-64
2023/05/03 10:01:04;;;;;;;5.50;3.13;;;;;;;18.90;44.37;95352.13;4983573;28;20338;-62
2023/05/03 10:03:35;;;;;;;5.30;3.35;;;;;;;19.20;44.08;95351.97;4983770;28;20286;-65
2023/05/03 10:06:05;;;;;;;4.80;3.35;;;;;;;19.07;43.42;95356.22;4984682;28;20333;-62
2023/05/03 10:08:34;;;;;;;5.00;3.53;;;;;;;19.27;43.38;95354.09;4985089;28;20320;-63
2023/05/03 10:11:03;;;;;;;3.17;2.88;;;;;;;18.81;44.08;95348.34;4984526;28;20293;-64
2023/05/03 10:13:30;;;;;;;5.85;3.53;;;;;;;18.17;45.38;95357.34;4983686;28;20258;-62
2023/05/03 10:16:02;;;;;;;2.97;2.78;;;;;;;18.22;45.65;95354.50;4984282;28;20262;-63
2023/05/03 10:18:32;;;;;;;4.28;3.55;;;;;;;18.58;45.50;95347.16;4986330;28;20207;-65
2023/05/03 10:21:03;;;;;;;6.60;3.67;;;;;;;18.87;44.81;95332.53;4983913;28;20338;-66
2023/05/03 10:23:30;;;;;;;5.00;3.40;;;;;;;19.36;44.57;95342.34;4983939;28;20738;-63
2023/05/03 10:26:15;;;;;;;3.63;3.33;;;;;;;19.49;43.98;95327.75;4983399;28;20208;-63
2023/05/03 10:28:42;;;;;;;3.85;3.25;;;;;;;18.94;44.27;95322.69;4985356;28;20374;-64
2023/05/03 10:31:44;;;;;;;4.40;4.20;;;;;;;18.79;45.91;95311.59;4984478;28;21123;-64
2023/05/03 10:34:23;;;;;;;3.35;3.05;;;;;;;18.60;45.51;95303.34;4983489;28;20548;-63
2023/05/03 10:36:52;;;;;;;3.70;3.40;;;;;;;19.07;44.59;95307.28;4983614;28;20650;-62
2023/05/03 10:39:20;;;;;;;3.40;3.10;;;;;;;19.16;44.51;95314.44;4983277;28;20235;-64
2023/05/03 10:41:58;;;;;;;3.45;3.22;;;;;;;19.03;45.05;95299.78;4982774;28;20691;-62
2023/05/03 10:44:34;;;;;;;3.40;3.20;;;;;;;18.78;45.76;95312.53;4980018;28;20204;-63
2023/05/03 10:47:11;;;;;;;3.60;3.33;;;;;;;18.41;46.66;95305.34;4983232;28;20211;-64
2023/05/03 10:49:39;;;;;;;3.90;3.50;;;;;;;18.06;47.92;95315.19;4985813;28;20203;-62
2023/05/03 10:52:55;;;;;;;3.03;2.83;;;;;;;18.10;48.07;95302.03;4983869;28;20219;-66
2023/05/03 10:55:23;;;;;;;5.50;3.40;;;;;;;18.23;47.29;95297.00;4972905;28;20203;-64
2023/05/03 10:57:53;;;;;;;3.17;3.03;;;;;;;17.95;47.86;95308.09;4984687;28;20751;-64
2023/05/03 11:00:27;;;;;;;3.33;2.85;;;;;;;17.95;48.21;95308.09;4984835;28;20234;-65
2023/05/03 11:03:44;;;;;;;3.42;3.17;;;;;;;17.92;48.37;95313.41;4983374;28;20847;-64
2023/05/03 11:06:27;;;;;;;3.90;2.97;;;;;;;17.98;48.20;95321.59;4975551;28;20247;-62
2023/05/03 11:08:53;;;;;;;5.03;3.10;;;;;;;18.05;48.43;95306.63;4987860;28;20300;-63
2023/05/03 11:11:20;;;;;;;4.13;2.47;;;;;;;18.13;48.11;95296.69;4986979;28;20200;-63
2023/05/03 11:13:47;;;;;;;2.80;2.60;;;;;;;18.10;48.35;95307.16;4989144;28;20565;-64
2023/05/03 11:16:14;;;;;;;3.00;2.45;;;;;;;18.24;48.02;95290.94;4989502;28;20657;-66
2023/05/03 11:18:41;;;;;;;3.35;3.15;;;;;;;18.40;47.44;95288.25;4988864;28;20296;-64
2023/05/03 11:21:07;;;;;;;3.05;2.85;;;;;;;18.71;47.13;95282.91;4991072;28;20359;-65
2023/05/03 11:23:38;;;;;;;4.05;2.92;;;;;;;18.94;46.62;95294.34;4988956;28;20274;-63
2023/05/03 11:26:06;;;;;;;12.10;3.40;;;;;;;19.00;46.79;95279.34;4989307;28;20373;-63
2023/05/03 11:28:33;;;;;;;8.13;3.10;;;;;;;18.95;47.05;95286.53;4989979;28;20741;-65
2023/05/03 11:31:00;;;;;;;3.08;2.88;;;;;;;19.14;46.87;95260.44;4988614;28;20273;-64
2023/05/03 11:33:29;;;;;;;3.03;2.92;;;;;;;19.44;46.49;95265.38;4987630;28;20204;-63
2023/05/03 11:35:56;;;;;;;4.03;3.28;;;;;;;19.24;46.79;95266.66;4990023;28;20772;-64
2023/05/03 11:38:23;;;;;;;11.18;3.17;;;;;;;19.31;46.24;95267.06;4991090;28;20317;-65